sensor_id;sensor_type;location;lat;lon;timestamp;pressure;altitude;pressure_sealevel;temperature;humidity
79663;BME280;69130;48.724;8.982;2023-07-13T00:01:31;96508.72;;;18.31;100.00
79663;BME280;69130;48.724;8.982;2023-07-13T00:03:57;96508.72;;;18.31;100.00
79663;BME280;69130;48.724;8.982;2023-07-13T00:06:22;96504.53;;;18.28;100.00
79663;BME280;69130;48.724;8.982;2023-07-13T00:08:48;96506.00;;;18.23;100.00
79663;BME280;69130;48.724;8.982;2023-07-13T00:11:15;96500.75;;;18.21;100.00
79663;BME280;69130;48.724;8.982;2023-07-13T00:13:42;96496.16;;;18.14;100.00
79663;BME280;69130;48.724;8.982;2023-07-13T00:16:08;96482.84;;;18.04;100.00
79663;BME280;69130;48.724;8.982;2023-07-13T00:18:34;96487.81;;;17.99;100.00
79663;BME280;69130;48.724;8.982;2023-07-13T00:20:59;96488.41;;;17.93;100.00
79663;BME280;69130;48.724;8.982;2023-07-13T00:23:37;96490.28;;;17.83;100.00
79663;BME280;69130;48.724;8.982;2023-07-13T00:26:04;96485.22;;;17.80;100.00
79663;BME280;69130;48.724;8.982;2023-07-13T00:28:30;96482.00;;;17.77;100.00
79663;BME280;69130;48.724;8.982;2023-07-13T00:30:55;96479.75;;;17.72;100.00
79663;BME280;69130;48.724;8.982;2023-07-13T00:33:21;96481.44;;;17.73;100.00
79663;BME280;69130;48.724;8.982;2023-07-13T00:35:48;96480.34;;;17.66;100.00
79663;BME280;69130;48.724;8.982;2023-07-13T00:38:13;96474.44;;;17.63;100.00
79663;BME280;69130;48.724;8.982;2023-07-13T00:40:39;96477.81;;;17.65;100.00
79663;BME280;69130;48.724;8.982;2023-07-13T00:43:16;96479.50;;;17.66;100.00
79663;BME280;69130;48.724;8.982;2023-07-13T00:48:17;96488.09;;;17.69;100.00
79663;BME280;69130;48.724;8.982;2023-07-13T00:50:44;96492.19;;;17.64;100.00
79663;BME280;69130;48.724;8.982;2023-07-13T00:53:12;96496.53;;;17.65;100.00
79663;BME280;69130;48.724;8.982;2023-07-13T00:55:38;96500.63;;;17.69;100.00
79663;BME280;69130;48.724;8.982;2023-07-13T00:58:05;96500.19;;;17.73;100.00
79663;BME280;69130;48.724;8.982;2023-07-13T01:00:34;96506.00;;;17.59;100.00
79663;BME280;69130;48.724;8.982;2023-07-13T01:03:01;96505.75;;;17.53;100.00
79663;BME280;69130;48.724;8.982;2023-07-13T01:05:30;96509.38;;;17.61;100.00
79663;BME280;69130;48.724;8.982;2023-07-13T01:07:57;96507.44;;;17.54;100.00
79663;BME280;69130;48.724;8.982;2023-07-13T01:10:23;96511.50;;;17.38;100.00
79663;BME280;69130;48.724;8.982;2023-07-13T01:12:49;96512.63;;;17.45;100.00
79663;BME280;69130;48.724;8.982;2023-07-13T01:15:41;96511.63;;;17.46;100.00
79663;BME280;69130;48.724;8.982;2023-07-13T01:18:08;96503.91;;;17.53;100.00
79663;BME280;69130;48.724;8.982;2023-07-13T01:20:36;96510.53;;;17.39;100.00
79663;BME280;69130;48.724;8.982;2023-07-13T01:23:11;96511.94;;;17.43;100.00
79663;BME280;69130;48.724;8.982;2023-07-13T01:25:38;96522.25;;;17.29;100.00
79663;BME280;69130;48.724;8.982;2023-07-13T01:28:05;96516.53;;;17.14;100.00
79663;BME280;69130;48.724;8.982;2023-07-13T01:30:30;96511.75;;;16.99;100.00
79663;BME280;69130;48.724;8.982;2023-07-13T01:32:57;96513.28;;;17.01;100.00
79663;BME280;69130;48.724;8.982;2023-07-13T01:35:22;96512.44;;;17.01;100.00
79663;BME280;69130;48.724;8.982;2023-07-13T01:37:48;96496.97;;;16.76;100.00
79663;BME280;69130;48.724;8.982;2023-07-13T01:40:13;96506.69;;;16.57;100.00
79663;BME280;69130;48.724;8.982;2023-07-13T01:42:39;96507.22;;;16.51;100.00
79663;BME280;69130;48.724;8.982;2023-07-13T01:45:04;96507.91;;;16.44;100.00
79663;BME280;69130;48.724;8.982;2023-07-13T01:47:30;96517.91;;;16.51;100.00
79663;BME280;69130;48.724;8.982;2023-07-13T01:49:56;96514.09;;;16.44;100.00
79663;BME280;69130;48.724;8.982;2023-07-13T01:52:22;96511.63;;;16.52;100.00
79663;BME280;69130;48.724;8.982;2023-07-13T01:54:48;96520.56;;;16.42;100.00
79663;BME280;69130;48.724;8.982;2023-07-13T01:57:13;96516.75;;;16.25;100.00
79663;BME280;69130;48.724;8.982;2023-07-13T01:59:38;96523.91;;;16.34;100.00
79663;BME280;69130;48.724;8.982;2023-07-13T02:02:04;96521.81;;;16.38;100.00
79663;BME280;69130;48.724;8.982;2023-07-13T02:04:29;96521.25;;;16.25;100.00
79663;BME280;69130;48.724;8.982;2023-07-13T02:06:55;96517.00;;;16.22;100.00
79663;BME280;69130;48.724;8.982;2023-07-13T02:09:20;96512.50;;;16.13;100.00
79663;BME280;69130;48.724;8.982;2023-07-13T02:11:46;96506.16;;;16.14;100.00
79663;BME280;69130;48.724;8.982;2023-07-13T02:14:11;96518.00;;;16.12;100.00
79663;BME280;69130;48.724;8.982;2023-07-13T02:16:36;96514.44;;;16.02;100.00
79663;BME280;69130;48.724;8.982;2023-07-13T02:19:02;96520.59;;;15.93;100.00
79663;BME280;69130;48.724;8.982;2023-07-13T02:21:27;96517.22;;;16.00;100.00
79663;BME280;69130;48.724;8.982;2023-07-13T02:23:53;96520.66;;;16.12;100.00
79663;BME280;69130;48.724;8.982;2023-07-13T02:26:19;96521.03;;;15.98;100.00
79663;BME280;69130;48.724;8.982;2023-07-13T02:28:45;96532.97;;;15.94;100.00
79663;BME280;69130;48.724;8.982;2023-07-13T02:31:13;96528.69;;;15.82;100.00
79663;BME280;69130;48.724;8.982;2023-07-13T02:33:39;96526.22;;;15.90;100.00
79663;BME280;69130;48.724;8.982;2023-07-13T02:36:11;96523.94;;;15.85;100.00
79663;BME280;69130;48.724;8.982;2023-07-13T02:38:37;96528.00;;;15.80;100.00
79663;BME280;69130;48.724;8.982;2023-07-13T02:41:04;96530.38;;;15.83;100.00
79663;BME280;69130;48.724;8.982;2023-07-13T02:43:30;96531.19;;;15.73;100.00
79663;BME280;69130;48.724;8.982;2023-07-13T02:45:56;96525.31;;;15.80;100.00
79663;BME280;69130;48.724;8.982;2023-07-13T02:48:21;96523.19;;;15.73;100.00
79663;BME280;69130;48.724;8.982;2023-07-13T02:50:47;96531.38;;;15.82;100.00
79663;BME280;69130;48.724;8.982;2023-07-13T02:53:12;96527.72;;;15.83;100.00
79663;BME280;69130;48.724;8.982;2023-07-13T02:55:37;96532.16;;;15.72;100.00
79663;BME280;69130;48.724;8.982;2023-07-13T02:58:03;96534.25;;;15.69;100.00
79663;BME280;69130;48.724;8.982;2023-07-13T03:00:28;96536.75;;;15.40;100.00
79663;BME280;69130;48.724;8.982;2023-07-13T03:02:54;96538.41;;;15.52;100.00
79663;BME280;69130;48.724;8.982;2023-07-13T03:05:22;96530.41;;;15.52;100.00
79663;BME280;69130;48.724;8.982;2023-07-13T03:07:47;96529.16;;;15.56;100.00
79663;BME280;69130;48.724;8.982;2023-07-13T03:10:12;96527.34;;;15.36;100.00
79663;BME280;69130;48.724;8.982;2023-07-13T03:12:38;96541.75;;;15.45;100.00
79663;BME280;69130;48.724;8.982;2023-07-13T03:15:03;96534.19;;;15.50;100.00
79663;BME280;69130;48.724;8.982;2023-07-13T03:17:29;96540.63;;;15.47;100.00
79663;BME280;69130;48.724;8.982;2023-07-13T03:19:55;96535.13;;;15.49;100.00
79663;BME280;69130;48.724;8.982;2023-07-13T03:22:21;96544.63;;;15.62;100.00
79663;BME280;69130;48.724;8.982;2023-07-13T03:24:46;96542.16;;;15.70;100.00
79663;BME280;69130;48.724;8.982;2023-07-13T03:27:13;96543.81;;;15.71;100.00
79663;BME280;69130;48.724;8.982;2023-07-13T03:29:38;96550.53;;;15.66;100.00
79663;BME280;69130;48.724;8.982;2023-07-13T03:32:04;96554.81;;;15.78;100.00
79663;BME280;69130;48.724;8.982;2023-07-13T03:34:30;96556.78;;;15.76;100.00
79663;BME280;69130;48.724;8.982;2023-07-13T03:36:55;96563.94;;;15.76;100.00
79663;BME280;69130;48.724;8.982;2023-07-13T03:39:20;96562.78;;;15.68;100.00
79663;BME280;69130;48.724;8.982;2023-07-13T03:41:46;96564.19;;;15.72;100.00
79663;BME280;69130;48.724;8.982;2023-07-13T03:44:11;96573.88;;;15.73;100.00
79663;BME280;69130;48.724;8.982;2023-07-13T03:46:37;96569.50;;;15.72;100.00
79663;BME280;69130;48.724;8.982;2023-07-13T03:49:04;96562.69;;;15.80;100.00
79663;BME280;69130;48.724;8.982;2023-07-13T03:51:30;96560.13;;;15.68;100.00
79663;BME280;69130;48.724;8.982;2023-07-13T03:53:56;96575.69;;;15.73;100.00
79663;BME280;69130;48.724;8.982;2023-07-13T03:56:22;96572.34;;;15.81;100.00
79663;BME280;69130;48.724;8.982;2023-07-13T03:58:49;96578.41;;;15.83;100.00
79663;BME280;69130;48.724;8.982;2023-07-13T04:01:16;96596.13;;;15.84;100.00
79663;BME280;69130;48.724;8.982;2023-07-13T04:03:42;96581.41;;;15.89;100.00
79663;BME280;69130;48.724;8.982;2023-07-13T04:06:14;96583.94;;;15.91;100.00
79663;BME280;69130;48.724;8.982;2023-07-13T04:08:40;96582.81;;;15.93;100.00
79663;BME280;69130;48.724;8.982;2023-07-13T04:11:06;96585.06;;;15.88;100.00
79663;BME280;69130;48.724;8.982;2023-07-13T04:13:32;96586.88;;;15.88;100.00
79663;BME280;69130;48.724;8.982;2023-07-13T04:15:57;96582.41;;;15.88;100.00
79663;BME280;69130;48.724;8.982;2023-07-13T04:18:23;96594.59;;;15.91;100.00
79663;BME280;69130;48.724;8.982;2023-07-13T04:20:49;96591.88;;;15.81;100.00
79663;BME280;69130;48.724;8.982;2023-07-13T04:23:15;96600.59;;;15.83;100.00
79663;BME280;69130;48.724;8.982;2023-07-13T04:25:46;96600.75;;;15.82;100.00
79663;BME280;69130;48.724;8.982;2023-07-13T04:28:12;96595.56;;;15.80;100.00
79663;BME280;69130;48.724;8.982;2023-07-13T04:30:37;96597.47;;;15.68;100.00
79663;BME280;69130;48.724;8.982;2023-07-13T04:33:03;96606.56;;;15.66;100.00
79663;BME280;69130;48.724;8.982;2023-07-13T04:35:29;96594.66;;;15.70;100.00
79663;BME280;69130;48.724;8.982;2023-07-13T04:37:55;96604.03;;;15.64;100.00
79663;BME280;69130;48.724;8.982;2023-07-13T04:40:20;96594.28;;;15.54;100.00
79663;BME280;69130;48.724;8.982;2023-07-13T04:42:46;96594.00;;;15.57;100.00
79663;BME280;69130;48.724;8.982;2023-07-13T04:45:13;96599.69;;;15.43;100.00
79663;BME280;69130;48.724;8.982;2023-07-13T04:47:39;96602.22;;;15.44;100.00
79663;BME280;69130;48.724;8.982;2023-07-13T04:50:05;96596.38;;;15.39;100.00
79663;BME280;69130;48.724;8.982;2023-07-13T04:52:31;96606.09;;;15.40;100.00
79663;BME280;69130;48.724;8.982;2023-07-13T04:54:58;96608.94;;;15.28;100.00
79663;BME280;69130;48.724;8.982;2023-07-13T04:57:23;96612.47;;;15.28;100.00
79663;BME280;69130;48.724;8.982;2023-07-13T04:59:49;96615.38;;;15.25;100.00
79663;BME280;69130;48.724;8.982;2023-07-13T05:02:14;96612.59;;;15.27;100.00
79663;BME280;69130;48.724;8.982;2023-07-13T05:04:40;96610.72;;;15.38;100.00
79663;BME280;69130;48.724;8.982;2023-07-13T05:07:05;96616.72;;;15.51;100.00
79663;BME280;69130;48.724;8.982;2023-07-13T05:09:31;96614.72;;;15.64;100.00
79663;BME280;69130;48.724;8.982;2023-07-13T05:11:56;96618.25;;;15.74;100.00
79663;BME280;69130;48.724;8.982;2023-07-13T05:14:23;96621.38;;;15.80;100.00
79663;BME280;69130;48.724;8.982;2023-07-13T05:16:48;96617.50;;;15.93;100.00
79663;BME280;69130;48.724;8.982;2023-07-13T05:19:14;96613.91;;;16.04;100.00
79663;BME280;69130;48.724;8.982;2023-07-13T05:21:39;96610.91;;;16.18;100.00
79663;BME280;69130;48.724;8.982;2023-07-13T05:24:06;96605.56;;;16.18;100.00
79663;BME280;69130;48.724;8.982;2023-07-13T05:26:31;96613.09;;;16.13;100.00
79663;BME280;69130;48.724;8.982;2023-07-13T05:28:57;96620.44;;;16.20;100.00
79663;BME280;69130;48.724;8.982;2023-07-13T05:31:22;96618.84;;;16.08;100.00
79663;BME280;69130;48.724;8.982;2023-07-13T05:33:47;96624.25;;;16.18;100.00
79663;BME280;69130;48.724;8.982;2023-07-13T05:36:13;96630.44;;;16.28;100.00
79663;BME280;69130;48.724;8.982;2023-07-13T05:38:38;96624.88;;;16.40;100.00
79663;BME280;69130;48.724;8.982;2023-07-13T05:41:05;96626.09;;;16.27;100.00
79663;BME280;69130;48.724;8.982;2023-07-13T05:43:30;96619.25;;;16.43;100.00
79663;BME280;69130;48.724;8.982;2023-07-13T05:45:56;96619.56;;;16.50;100.00
79663;BME280;69130;48.724;8.982;2023-07-13T05:48:22;96621.94;;;16.43;100.00
79663;BME280;69130;48.724;8.982;2023-07-13T05:50:47;96626.19;;;16.55;100.00
79663;BME280;69130;48.724;8.982;2023-07-13T05:53:13;96633.59;;;16.42;100.00
79663;BME280;69130;48.724;8.982;2023-07-13T05:55:43;96639.69;;;16.24;100.00
79663;BME280;69130;48.724;8.982;2023-07-13T05:58:09;96644.66;;;16.38;100.00
79663;BME280;69130;48.724;8.982;2023-07-13T06:00:35;96643.72;;;16.39;100.00
79663;BME280;69130;48.724;8.982;2023-07-13T06:03:00;96645.91;;;16.64;100.00
79663;BME280;69130;48.724;8.982;2023-07-13T06:05:25;96648.75;;;16.72;100.00
79663;BME280;69130;48.724;8.982;2023-07-13T06:08:26;96653.69;;;16.77;100.00
79663;BME280;69130;48.724;8.982;2023-07-13T06:10:52;96649.75;;;16.81;100.00
79663;BME280;69130;48.724;8.982;2023-07-13T06:13:17;96649.47;;;16.84;100.00
79663;BME280;69130;48.724;8.982;2023-07-13T06:15:48;96651.84;;;16.77;100.00
79663;BME280;69130;48.724;8.982;2023-07-13T06:18:14;96656.53;;;16.94;100.00
79663;BME280;69130;48.724;8.982;2023-07-13T06:20:39;96666.22;;;16.95;100.00
79663;BME280;69130;48.724;8.982;2023-07-13T06:23:05;96674.13;;;17.16;100.00
79663;BME280;69130;48.724;8.982;2023-07-13T06:25:30;96675.69;;;17.37;100.00
79663;BME280;69130;48.724;8.982;2023-07-13T06:27:56;96672.72;;;17.40;100.00
79663;BME280;69130;48.724;8.982;2023-07-13T06:30:21;96678.41;;;17.76;100.00
79663;BME280;69130;48.724;8.982;2023-07-13T06:32:46;96676.41;;;17.87;100.00
79663;BME280;69130;48.724;8.982;2023-07-13T06:35:12;96674.81;;;17.94;100.00
79663;BME280;69130;48.724;8.982;2023-07-13T06:37:38;96671.09;;;18.14;100.00
79663;BME280;69130;48.724;8.982;2023-07-13T06:40:04;96669.13;;;18.16;100.00
79663;BME280;69130;48.724;8.982;2023-07-13T06:42:29;96672.59;;;18.36;100.00
79663;BME280;69130;48.724;8.982;2023-07-13T06:44:55;96679.97;;;18.61;100.00
79663;BME280;69130;48.724;8.982;2023-07-13T06:47:20;96685.53;;;18.41;100.00
79663;BME280;69130;48.724;8.982;2023-07-13T06:49:45;96680.19;;;18.50;100.00
79663;BME280;69130;48.724;8.982;2023-07-13T06:52:11;96685.44;;;18.69;100.00
79663;BME280;69130;48.724;8.982;2023-07-13T06:54:36;96689.66;;;18.72;100.00
79663;BME280;69130;48.724;8.982;2023-07-13T06:57:02;96682.97;;;18.58;100.00
79663;BME280;69130;48.724;8.982;2023-07-13T06:59:27;96683.94;;;18.57;100.00
79663;BME280;69130;48.724;8.982;2023-07-13T07:01:52;96688.44;;;18.66;100.00
79663;BME280;69130;48.724;8.982;2023-07-13T07:04:18;96693.09;;;18.91;100.00
79663;BME280;69130;48.724;8.982;2023-07-13T07:06:43;96700.41;;;19.16;100.00
79663;BME280;69130;48.724;8.982;2023-07-13T07:09:08;96688.38;;;19.21;100.00
79663;BME280;69130;48.724;8.982;2023-07-13T07:11:34;96690.72;;;19.33;100.00
79663;BME280;69130;48.724;8.982;2023-07-13T07:13:59;96697.22;;;19.66;100.00
79663;BME280;69130;48.724;8.982;2023-07-13T07:16:25;96695.00;;;19.96;100.00
79663;BME280;69130;48.724;8.982;2023-07-13T07:18:52;96697.78;;;20.30;100.00
79663;BME280;69130;48.724;8.982;2023-07-13T07:21:17;96703.13;;;20.13;100.00
79663;BME280;69130;48.724;8.982;2023-07-13T07:23:43;96702.72;;;20.43;100.00
79663;BME280;69130;48.724;8.982;2023-07-13T07:26:09;96700.28;;;20.57;100.00
79663;BME280;69130;48.724;8.982;2023-07-13T07:28:35;96689.00;;;20.96;100.00
79663;BME280;69130;48.724;8.982;2023-07-13T07:31:01;96698.69;;;21.14;100.00
79663;BME280;69130;48.724;8.982;2023-07-13T07:33:27;96692.75;;;21.52;100.00
79663;BME280;69130;48.724;8.982;2023-07-13T07:38:09;96683.81;;;22.40;100.00
79663;BME280;69130;48.724;8.982;2023-07-13T07:40:38;96691.47;;;22.76;100.00
79663;BME280;69130;48.724;8.982;2023-07-13T07:43:05;96684.63;;;23.04;100.00
79663;BME280;69130;48.724;8.982;2023-07-13T07:45:30;96699.84;;;23.35;100.00
79663;BME280;69130;48.724;8.982;2023-07-13T07:47:56;96686.81;;;23.08;100.00
79663;BME280;69130;48.724;8.982;2023-07-13T07:50:27;96688.34;;;23.64;100.00
79663;BME280;69130;48.724;8.982;2023-07-13T07:52:52;96691.72;;;24.11;100.00
79663;BME280;69130;48.724;8.982;2023-07-13T07:55:18;96689.41;;;24.23;100.00
79663;BME280;69130;48.724;8.982;2023-07-13T07:57:43;96701.16;;;23.93;100.00
79663;BME280;69130;48.724;8.982;2023-07-13T08:00:09;96697.72;;;23.76;100.00
79663;BME280;69130;48.724;8.982;2023-07-13T08:02:35;96712.53;;;24.63;100.00
79663;BME280;69130;48.724;8.982;2023-07-13T08:05:00;96705.84;;;25.02;100.00
79663;BME280;69130;48.724;8.982;2023-07-13T08:07:26;96707.16;;;25.21;100.00
79663;BME280;69130;48.724;8.982;2023-07-13T08:09:54;96708.25;;;25.12;100.00
79663;BME280;69130;48.724;8.982;2023-07-13T08:12:19;96708.94;;;25.64;100.00
79663;BME280;69130;48.724;8.982;2023-07-13T08:14:45;96707.75;;;25.88;100.00
79663;BME280;69130;48.724;8.982;2023-07-13T08:17:10;96711.47;;;26.78;100.00
79663;BME280;69130;48.724;8.982;2023-07-13T08:19:35;96709.69;;;26.15;100.00
79663;BME280;69130;48.724;8.982;2023-07-13T08:22:01;96707.63;;;26.17;100.00
79663;BME280;69130;48.724;8.982;2023-07-13T08:24:26;96707.09;;;26.77;100.00
79663;BME280;69130;48.724;8.982;2023-07-13T08:26:51;96708.53;;;26.73;100.00
79663;BME280;69130;48.724;8.982;2023-07-13T08:29:18;96712.19;;;27.27;100.00
79663;BME280;69130;48.724;8.982;2023-07-13T08:31:43;96699.56;;;27.13;100.00
79663;BME280;69130;48.724;8.982;2023-07-13T08:34:10;96709.59;;;26.51;100.00
79663;BME280;69130;48.724;8.982;2023-07-13T08:36:35;96700.13;;;25.41;100.00
79663;BME280;69130;48.724;8.982;2023-07-13T08:39:00;96704.56;;;26.06;100.00
79663;BME280;69130;48.724;8.982;2023-07-13T08:41:26;96700.19;;;27.15;100.00
79663;BME280;69130;48.724;8.982;2023-07-13T08:43:56;96705.78;;;27.07;100.00
79663;BME280;69130;48.724;8.982;2023-07-13T08:49:09;96714.25;;;25.72;100.00
79663;BME280;69130;48.724;8.982;2023-07-13T08:51:52;96706.72;;;26.31;100.00
79663;BME280;69130;48.724;8.982;2023-07-13T08:54:33;96710.50;;;27.26;100.00
79663;BME280;69130;48.724;8.982;2023-07-13T08:57:13;96712.91;;;28.03;100.00
79663;BME280;69130;48.724;8.982;2023-07-13T08:59:39;96709.59;;;28.33;99.99
79663;BME280;69130;48.724;8.982;2023-07-13T09:10:30;96711.47;;;25.16;100.00
79663;BME280;69130;48.724;8.982;2023-07-13T09:15:41;96715.66;;;24.89;100.00
79663;BME280;69130;48.724;8.982;2023-07-13T09:18:13;96721.56;;;24.78;100.00
79663;BME280;69130;48.724;8.982;2023-07-13T09:20:46;96715.84;;;24.87;100.00
79663;BME280;69130;48.724;8.982;2023-07-13T09:23:20;96717.91;;;26.01;100.00
79663;BME280;69130;48.724;8.982;2023-07-13T09:25:49;96723.78;;;25.03;100.00
79663;BME280;69130;48.724;8.982;2023-07-13T09:28:25;96709.72;;;25.79;100.00
79663;BME280;69130;48.724;8.982;2023-07-13T09:33:19;96709.94;;;26.97;96.38
79663;BME280;69130;48.724;8.982;2023-07-13T09:35:44;96716.50;;;27.09;82.10
79663;BME280;69130;48.724;8.982;2023-07-13T09:38:14;96709.78;;;27.05;74.27
79663;BME280;69130;48.724;8.982;2023-07-13T09:40:56;96710.09;;;27.23;74.52
79663;BME280;69130;48.724;8.982;2023-07-13T09:43:24;96723.94;;;27.88;78.56
79663;BME280;69130;48.724;8.982;2023-07-13T09:45:50;96718.25;;;27.70;71.08
79663;BME280;69130;48.724;8.982;2023-07-13T09:48:17;96708.94;;;27.04;69.20
79663;BME280;69130;48.724;8.982;2023-07-13T09:50:44;96708.56;;;26.79;68.15
79663;BME280;69130;48.724;8.982;2023-07-13T09:53:14;96710.31;;;26.66;75.36
79663;BME280;69130;48.724;8.982;2023-07-13T09:55:41;96709.19;;;26.54;74.65
79663;BME280;69130;48.724;8.982;2023-07-13T09:58:20;96710.00;;;26.48;71.89
79663;BME280;69130;48.724;8.982;2023-07-13T10:01:01;96704.41;;;26.07;79.31
79663;BME280;69130;48.724;8.982;2023-07-13T10:03:32;96704.44;;;26.62;81.72
79663;BME280;69130;48.724;8.982;2023-07-13T10:06:20;96711.47;;;26.78;79.00
79663;BME280;69130;48.724;8.982;2023-07-13T10:08:47;96708.66;;;26.65;78.43
79663;BME280;69130;48.724;8.982;2023-07-13T10:11:28;96708.25;;;26.40;76.53
79663;BME280;69130;48.724;8.982;2023-07-13T10:13:59;96706.06;;;26.29;86.14
79663;BME280;69130;48.724;8.982;2023-07-13T10:16:30;96702.63;;;25.78;87.98
79663;BME280;69130;48.724;8.982;2023-07-13T10:19:00;96713.25;;;25.94;91.40
79663;BME280;69130;48.724;8.982;2023-07-13T10:21:32;96706.84;;;26.02;91.48
79663;BME280;69130;48.724;8.982;2023-07-13T10:24:15;96716.22;;;24.99;80.27
79663;BME280;69130;48.724;8.982;2023-07-13T10:26:47;96705.09;;;25.08;91.22
79663;BME280;69130;48.724;8.982;2023-07-13T10:29:14;96709.03;;;24.91;88.17
79663;BME280;69130;48.724;8.982;2023-07-13T10:31:41;96703.16;;;24.73;90.23
79663;BME280;69130;48.724;8.982;2023-07-13T10:34:10;96705.56;;;24.68;86.66
79663;BME280;69130;48.724;8.982;2023-07-13T10:36:47;96711.56;;;24.93;84.24
79663;BME280;69130;48.724;8.982;2023-07-13T10:39:19;96712.38;;;25.08;91.99
79663;BME280;69130;48.724;8.982;2023-07-13T10:41:50;96701.19;;;25.61;90.51
79663;BME280;69130;48.724;8.982;2023-07-13T10:44:31;96709.94;;;25.78;90.13
79663;BME280;69130;48.724;8.982;2023-07-13T10:47:08;96717.22;;;25.27;91.70
79663;BME280;69130;48.724;8.982;2023-07-13T10:49:38;96710.88;;;25.20;92.30
79663;BME280;69130;48.724;8.982;2023-07-13T10:52:06;96714.47;;;25.56;87.54
79663;BME280;69130;48.724;8.982;2023-07-13T10:54:33;96712.00;;;25.40;95.42
79663;BME280;69130;48.724;8.982;2023-07-13T10:57:20;96708.00;;;25.07;95.11
79663;BME280;69130;48.724;8.982;2023-07-13T10:59:48;96715.28;;;25.21;95.13
79663;BME280;69130;48.724;8.982;2023-07-13T11:02:27;96708.06;;;25.43;88.66
79663;BME280;69130;48.724;8.982;2023-07-13T11:04:54;96701.88;;;25.84;84.65
79663;BME280;69130;48.724;8.982;2023-07-13T11:09:52;96695.28;;;26.36;75.27
79663;BME280;69130;48.724;8.982;2023-07-13T11:25:36;96677.41;;;27.10;78.75
79663;BME280;69130;48.724;8.982;2023-07-13T11:30:46;96681.00;;;27.71;80.33
79663;BME280;69130;48.724;8.982;2023-07-13T11:35:57;96679.16;;;26.83;76.83
79663;BME280;69130;48.724;8.982;2023-07-13T11:38:44;96672.38;;;25.75;76.45
79663;BME280;69130;48.724;8.982;2023-07-13T11:41:42;96674.50;;;25.44;85.37
79663;BME280;69130;48.724;8.982;2023-07-13T11:44:17;96668.81;;;25.74;86.79
79663;BME280;69130;48.724;8.982;2023-07-13T11:46:54;96675.44;;;25.51;85.58
79663;BME280;69130;48.724;8.982;2023-07-13T11:49:22;96675.41;;;25.86;84.62
79663;BME280;69130;48.724;8.982;2023-07-13T11:51:49;96677.25;;;25.86;85.93
79663;BME280;69130;48.724;8.982;2023-07-13T11:54:31;96678.81;;;25.74;83.59
79663;BME280;69130;48.724;8.982;2023-07-13T11:57:05;96681.06;;;25.91;89.62
79663;BME280;69130;48.724;8.982;2023-07-13T11:59:32;96679.22;;;25.92;80.31
79663;BME280;69130;48.724;8.982;2023-07-13T12:01:59;96683.59;;;25.93;78.26
79663;BME280;69130;48.724;8.982;2023-07-13T12:04:32;96686.56;;;26.19;81.14
79663;BME280;69130;48.724;8.982;2023-07-13T12:07:16;96688.44;;;25.98;80.16
79663;BME280;69130;48.724;8.982;2023-07-13T12:09:42;96683.00;;;25.76;79.95
79663;BME280;69130;48.724;8.982;2023-07-13T12:12:17;96682.28;;;25.68;73.03
79663;BME280;69130;48.724;8.982;2023-07-13T12:14:43;96682.72;;;25.36;80.62
79663;BME280;69130;48.724;8.982;2023-07-13T12:17:15;96678.41;;;25.77;83.53
79663;BME280;69130;48.724;8.982;2023-07-13T12:19:41;96681.88;;;25.50;82.75
79663;BME280;69130;48.724;8.982;2023-07-13T12:22:11;96681.94;;;25.06;87.19
79663;BME280;69130;48.724;8.982;2023-07-13T12:24:37;96684.56;;;24.99;84.73
79663;BME280;69130;48.724;8.982;2023-07-13T12:27:04;96671.50;;;25.03;87.56
79663;BME280;69130;48.724;8.982;2023-07-13T12:29:31;96682.09;;;24.46;86.60
79663;BME280;69130;48.724;8.982;2023-07-13T12:31:57;96679.50;;;24.67;84.98
79663;BME280;69130;48.724;8.982;2023-07-13T12:34:24;96681.31;;;24.75;90.70
79663;BME280;69130;48.724;8.982;2023-07-13T12:36:51;96677.72;;;25.89;88.16
79663;BME280;69130;48.724;8.982;2023-07-13T12:41:44;96661.00;;;25.86;81.47
79663;BME280;69130;48.724;8.982;2023-07-13T12:44:24;96666.75;;;25.76;81.15
79663;BME280;69130;48.724;8.982;2023-07-13T12:46:57;96671.22;;;25.48;80.62
79663;BME280;69130;48.724;8.982;2023-07-13T12:49:26;96672.13;;;25.55;73.38
79663;BME280;69130;48.724;8.982;2023-07-13T12:51:57;96672.13;;;25.55;81.42
79663;BME280;69130;48.724;8.982;2023-07-13T12:54:24;96671.66;;;26.09;75.05
79663;BME280;69130;48.724;8.982;2023-07-13T12:56:50;96674.72;;;26.48;73.22
79663;BME280;69130;48.724;8.982;2023-07-13T12:59:20;96677.81;;;26.03;70.99
79663;BME280;69130;48.724;8.982;2023-07-13T13:01:47;96676.16;;;26.02;76.45
79663;BME280;69130;48.724;8.982;2023-07-13T13:04:15;96669.06;;;26.49;71.57
79663;BME280;69130;48.724;8.982;2023-07-13T13:06:41;96669.47;;;27.08;72.99
79663;BME280;69130;48.724;8.982;2023-07-13T13:09:13;96666.13;;;27.67;69.37
79663;BME280;69130;48.724;8.982;2023-07-13T13:11:39;96679.41;;;28.02;66.09
79663;BME280;69130;48.724;8.982;2023-07-13T13:14:05;96673.59;;;28.44;66.87
79663;BME280;69130;48.724;8.982;2023-07-13T13:16:37;96671.91;;;28.11;58.48
79663;BME280;69130;48.724;8.982;2023-07-13T13:21:45;96660.31;;;27.70;57.71
79663;BME280;69130;48.724;8.982;2023-07-13T13:24:13;96662.44;;;27.94;56.74
79663;BME280;69130;48.724;8.982;2023-07-13T13:26:39;96667.72;;;28.15;59.23
79663;BME280;69130;48.724;8.982;2023-07-13T13:29:12;96654.72;;;28.69;61.25
79663;BME280;69130;48.724;8.982;2023-07-13T13:31:38;96668.56;;;28.81;57.68
79663;BME280;69130;48.724;8.982;2023-07-13T13:34:08;96671.63;;;28.91;60.51
79663;BME280;69130;48.724;8.982;2023-07-13T13:36:34;96675.88;;;28.47;54.11
79663;BME280;69130;48.724;8.982;2023-07-13T13:39:00;96676.06;;;28.20;54.92
79663;BME280;69130;48.724;8.982;2023-07-13T13:41:27;96666.47;;;27.98;56.99
79663;BME280;69130;48.724;8.982;2023-07-13T13:43:52;96664.34;;;28.45;56.88